VOI1182 MMGL-MMHO
Flight info
| Callsign | VOI1182 |
|---|---|
| Flight time | 1h 41m |
| Altitude | 36000 |
| Route | SEDEM1B SEDEM UJ3 MZT UJ7 HMO |
| Aircraft | A320/M-SDE3FGHIRWY/LB1 |
Departure
| Time | 2026-05-05 02:55 |
|---|---|
| Airport | Guadalajara International Airport (MMGL) |
Arrival
| Time | 2026-05-05 04:36 |
|---|---|
| Airport | General Ignacio L. Pesqueira International Airport (MMHO) |
| Time | Latitude | Longitude | Altitude | Speed | Heading |
|---|---|---|---|---|---|
| 2026-05-05 02:43 | 20.52417 | -103.30027 | 5029 ft | 0 kts | 19° |
| 2026-05-05 02:47 | 20.52404 | -103.30032 | 5029 ft | 2 kts | 21° |
| 2026-05-05 02:47 | 20.52388 | -103.30039 | 5026 ft | 2 kts | 23° |
| 2026-05-05 02:47 | 20.52373 | -103.30046 | 5024 ft | 2 kts | 35° |
| 2026-05-05 02:48 | 20.52362 | -103.30059 | 5029 ft | 2 kts | 100° |
| 2026-05-05 02:48 | 20.52364 | -103.30067 | 5028 ft | 0 kts | 108° |
| 2026-05-05 02:48 | 20.52363 | -103.30066 | 5029 ft | 0 kts | 108° |
| 2026-05-05 02:48 | 20.52361 | -103.30059 | 5029 ft | 2 kts | 108° |
| 2026-05-05 02:49 | 20.52354 | -103.30036 | 5029 ft | 5 kts | 114° |
| 2026-05-05 02:49 | 20.52323 | -103.30025 | 5025 ft | 5 kts | 184° |
| 2026-05-05 02:49 | 20.52283 | -103.30036 | 5029 ft | 7 kts | 196° |
| 2026-05-05 02:49 | 20.52236 | -103.30054 | 5029 ft | 8 kts | 201° |
| 2026-05-05 02:50 | 20.52182 | -103.30058 | 5028 ft | 8 kts | 142° |
| 2026-05-05 02:50 | 20.52153 | -103.29997 | 5028 ft | 10 kts | 116° |
| 2026-05-05 02:50 | 20.52123 | -103.29928 | 5029 ft | 11 kts | 113° |
| 2026-05-05 02:50 | 20.52093 | -103.29852 | 5029 ft | 11 kts | 114° |
| 2026-05-05 02:51 | 20.52058 | -103.29772 | 5029 ft | 12 kts | 115° |
| 2026-05-05 02:51 | 20.52022 | -103.29686 | 5029 ft | 13 kts | 114° |
| 2026-05-05 02:51 | 20.51983 | -103.29593 | 5030 ft | 14 kts | 114° |
| 2026-05-05 02:51 | 20.51928 | -103.29534 | 5030 ft | 11 kts | 187° |
| 2026-05-05 02:52 | 20.51853 | -103.29567 | 5030 ft | 12 kts | 204° |
| 2026-05-05 02:52 | 20.51828 | -103.29630 | 5030 ft | 0 kts | 294° |
| 2026-05-05 02:54 | 20.51845 | -103.29672 | 5030 ft | 31 kts | 294° |
| 2026-05-05 02:54 | 20.52031 | -103.30115 | 5027 ft | 97 kts | 294° |
| 2026-05-05 02:54 | 20.52377 | -103.30943 | 5029 ft | 145 kts | 294° |
| 2026-05-05 02:54 | 20.52824 | -103.32046 | 5337 ft | 167 kts | 290° |
| 2026-05-05 02:55 | 20.53277 | -103.33187 | 6107 ft | 167 kts | 291° |
| 2026-05-05 02:55 | 20.53729 | -103.34320 | 6763 ft | 166 kts | 291° |
| 2026-05-05 02:55 | 20.54197 | -103.35485 | 7048 ft | 180 kts | 292° |
| 2026-05-05 02:55 | 20.54717 | -103.36781 | 7179 ft | 201 kts | 292° |
| 2026-05-05 02:56 | 20.55305 | -103.38238 | 7361 ft | 224 kts | 292° |
| 2026-05-05 02:56 | 20.55928 | -103.39782 | 7874 ft | 234 kts | 291° |
| 2026-05-05 02:56 | 20.56588 | -103.41416 | 8524 ft | 240 kts | 291° |
| 2026-05-05 02:56 | 20.57259 | -103.43080 | 9346 ft | 247 kts | 292° |
| 2026-05-05 02:57 | 20.57939 | -103.44768 | 10156 ft | 254 kts | 292° |
| 2026-05-05 02:57 | 20.58666 | -103.46507 | 10942 ft | 261 kts | 298° |
| 2026-05-05 02:57 | 20.59865 | -103.47978 | 11734 ft | 267 kts | 318° |
| 2026-05-05 02:57 | 20.61292 | -103.49276 | 12568 ft | 272 kts | 320° |
| 2026-05-05 02:58 | 20.62770 | -103.50569 | 13340 ft | 278 kts | 320° |
| 2026-05-05 02:58 | 20.64280 | -103.51894 | 14128 ft | 283 kts | 320° |
| 2026-05-05 02:58 | 20.65808 | -103.53256 | 14851 ft | 288 kts | 320° |
| 2026-05-05 02:58 | 20.67340 | -103.54647 | 15619 ft | 291 kts | 320° |
| 2026-05-05 02:59 | 20.68887 | -103.56068 | 16363 ft | 295 kts | 320° |
| 2026-05-05 02:59 | 20.70451 | -103.57518 | 17083 ft | 301 kts | 320° |
| 2026-05-05 02:59 | 20.72037 | -103.58994 | 17879 ft | 304 kts | 321° |
| 2026-05-05 02:59 | 20.73635 | -103.60486 | 18607 ft | 307 kts | 320° |
| 2026-05-05 03:00 | 20.75253 | -103.61999 | 19293 ft | 310 kts | 319° |
| 2026-05-05 03:00 | 20.76870 | -103.63509 | 19954 ft | 315 kts | 319° |
| 2026-05-05 03:00 | 20.78533 | -103.65065 | 20621 ft | 320 kts | 319° |
| 2026-05-05 03:00 | 20.80210 | -103.66630 | 21354 ft | 322 kts | 319° |
| 2026-05-05 03:01 | 20.81907 | -103.68214 | 22078 ft | 324 kts | 318° |
| 2026-05-05 03:01 | 20.83614 | -103.69812 | 22761 ft | 328 kts | 317° |
| 2026-05-05 03:01 | 20.85365 | -103.71455 | 23099 ft | 345 kts | 317° |
| 2026-05-05 03:01 | 20.87223 | -103.73198 | 23236 ft | 366 kts | 317° |
| 2026-05-05 03:02 | 20.89190 | -103.75039 | 23373 ft | 386 kts | 318° |
| 2026-05-05 03:02 | 20.91265 | -103.76975 | 23504 ft | 405 kts | 317° |
| 2026-05-05 03:02 | 20.93426 | -103.78990 | 23813 ft | 417 kts | 317° |
| 2026-05-05 03:02 | 20.95623 | -103.81047 | 24306 ft | 422 kts | 317° |
| 2026-05-05 03:03 | 20.97837 | -103.83124 | 24875 ft | 424 kts | 318° |
| 2026-05-05 03:03 | 21.00026 | -103.85180 | 25413 ft | 425 kts | 317° |
| 2026-05-05 03:03 | 21.02250 | -103.87270 | 25929 ft | 426 kts | 317° |
| 2026-05-05 03:03 | 21.04485 | -103.89366 | 26408 ft | 427 kts | 317° |
| 2026-05-05 03:04 | 21.06722 | -103.91463 | 26858 ft | 428 kts | 318° |
| 2026-05-05 03:04 | 21.08970 | -103.93569 | 27285 ft | 430 kts | 317° |
| 2026-05-05 03:04 | 21.11206 | -103.95699 | 27700 ft | 431 kts | 316° |
| 2026-05-05 03:04 | 21.13370 | -103.97924 | 28081 ft | 432 kts | 314° |
| 2026-05-05 03:05 | 21.15471 | -104.00238 | 28445 ft | 433 kts | 313° |
| 2026-05-05 03:05 | 21.17537 | -104.02597 | 28810 ft | 435 kts | 312° |
| 2026-05-05 03:05 | 21.19603 | -104.04973 | 29200 ft | 437 kts | 312° |
| 2026-05-05 03:05 | 21.21687 | -104.07356 | 29604 ft | 439 kts | 312° |
| 2026-05-05 03:06 | 21.23795 | -104.09733 | 30016 ft | 440 kts | 313° |
| 2026-05-05 03:06 | 21.25921 | -104.12096 | 30332 ft | 442 kts | 313° |
| 2026-05-05 03:06 | 21.28069 | -104.14466 | 30630 ft | 444 kts | 313° |
| 2026-05-05 03:06 | 21.30207 | -104.16823 | 30895 ft | 446 kts | 313° |
| 2026-05-05 03:07 | 21.32375 | -104.19217 | 31147 ft | 449 kts | 313° |
| 2026-05-05 03:07 | 21.34553 | -104.21628 | 31445 ft | 451 kts | 313° |
| 2026-05-05 03:07 | 21.36733 | -104.24045 | 31827 ft | 450 kts | 313° |
| 2026-05-05 03:07 | 21.38905 | -104.26460 | 32204 ft | 450 kts | 313° |
| 2026-05-05 03:08 | 21.41082 | -104.28879 | 32580 ft | 450 kts | 313° |
| 2026-05-05 03:08 | 21.43254 | -104.31294 | 32989 ft | 450 kts | 313° |
| 2026-05-05 03:08 | 21.45431 | -104.33712 | 33393 ft | 450 kts | 313° |
| 2026-05-05 03:08 | 21.47610 | -104.36133 | 33800 ft | 450 kts | 313° |
| 2026-05-05 03:09 | 21.49782 | -104.38553 | 34175 ft | 450 kts | 312° |
| 2026-05-05 03:09 | 21.51956 | -104.40975 | 34547 ft | 449 kts | 312° |
| 2026-05-05 03:09 | 21.54121 | -104.43388 | 34924 ft | 447 kts | 312° |
| 2026-05-05 03:09 | 21.56272 | -104.45787 | 35320 ft | 445 kts | 312° |
| 2026-05-05 03:10 | 21.58413 | -104.48182 | 35709 ft | 443 kts | 312° |
| 2026-05-05 03:10 | 21.60550 | -104.50576 | 35950 ft | 445 kts | 312° |
| 2026-05-05 03:10 | 21.62711 | -104.52992 | 36005 ft | 452 kts | 312° |
| 2026-05-05 03:11 | 21.67153 | -104.57945 | 36013 ft | 468 kts | 312° |
| 2026-05-05 03:11 | 21.71597 | -104.62894 | 36006 ft | 447 kts | 312° |
| 2026-05-05 03:12 | 21.75825 | -104.67625 | 35996 ft | 439 kts | 312° |
| 2026-05-05 03:12 | 21.80044 | -104.72355 | 36007 ft | 437 kts | 311° |
| 2026-05-05 03:13 | 21.84250 | -104.77069 | 35996 ft | 436 kts | 311° |
| 2026-05-05 03:13 | 21.87743 | -104.80993 | 35997 ft | 437 kts | 311° |
| 2026-05-05 03:14 | 21.91951 | -104.85720 | 35998 ft | 437 kts | 311° |
| 2026-05-05 03:14 | 21.96162 | -104.90450 | 36003 ft | 438 kts | 311° |
| 2026-05-05 03:15 | 22.00368 | -104.95194 | 35998 ft | 438 kts | 311° |
| 2026-05-05 03:15 | 22.04581 | -104.99936 | 36008 ft | 438 kts | 311° |
| 2026-05-05 03:16 | 22.08772 | -105.04647 | 36023 ft | 438 kts | 311° |
| 2026-05-05 03:16 | 22.12981 | -105.09392 | 36007 ft | 437 kts | 311° |
| 2026-05-05 03:17 | 22.17179 | -105.14136 | 36015 ft | 436 kts | 311° |
| 2026-05-05 03:17 | 22.21371 | -105.18877 | 36008 ft | 436 kts | 311° |
| 2026-05-05 03:18 | 22.25558 | -105.23610 | 35999 ft | 436 kts | 311° |
| 2026-05-05 03:18 | 22.29742 | -105.28340 | 35998 ft | 435 kts | 311° |
| 2026-05-05 03:19 | 22.35984 | -105.35415 | 35990 ft | 436 kts | 311° |
| 2026-05-05 03:19 | 22.40159 | -105.40159 | 35995 ft | 435 kts | 310° |
| 2026-05-05 03:20 | 22.44330 | -105.44900 | 35998 ft | 434 kts | 310° |
| 2026-05-05 03:20 | 22.48493 | -105.49631 | 36002 ft | 433 kts | 310° |
| 2026-05-05 03:21 | 22.52644 | -105.54359 | 35989 ft | 433 kts | 310° |
| 2026-05-05 03:21 | 22.56767 | -105.59064 | 35984 ft | 433 kts | 310° |
| 2026-05-05 03:22 | 22.60912 | -105.63793 | 35983 ft | 433 kts | 310° |
| 2026-05-05 03:22 | 22.65057 | -105.68525 | 35982 ft | 433 kts | 310° |
| 2026-05-05 03:23 | 22.69197 | -105.73247 | 35982 ft | 432 kts | 310° |
| 2026-05-05 03:23 | 22.73335 | -105.77975 | 35987 ft | 432 kts | 310° |
| 2026-05-05 03:24 | 22.77431 | -105.82669 | 35981 ft | 431 kts | 310° |
| 2026-05-05 03:24 | 22.81560 | -105.87395 | 35984 ft | 431 kts | 310° |
| 2026-05-05 03:25 | 22.85684 | -105.92117 | 35981 ft | 431 kts | 310° |
| 2026-05-05 03:25 | 22.89801 | -105.96851 | 35975 ft | 431 kts | 310° |
| 2026-05-05 03:26 | 22.93922 | -106.01587 | 35990 ft | 431 kts | 309° |
| 2026-05-05 03:26 | 22.98040 | -106.06319 | 35988 ft | 430 kts | 309° |
| 2026-05-05 03:27 | 23.02144 | -106.11037 | 35981 ft | 429 kts | 309° |
| 2026-05-05 03:27 | 23.06208 | -106.15726 | 35981 ft | 429 kts | 309° |
| 2026-05-05 03:28 | 23.10297 | -106.20442 | 35977 ft | 429 kts | 309° |
| 2026-05-05 03:28 | 23.14383 | -106.25157 | 35975 ft | 428 kts | 309° |
| 2026-05-05 03:29 | 23.19018 | -106.29282 | 35975 ft | 435 kts | 322° |
| 2026-05-05 03:29 | 23.24027 | -106.32976 | 35986 ft | 435 kts | 321° |
| 2026-05-05 03:30 | 23.29014 | -106.36690 | 35979 ft | 434 kts | 321° |
| 2026-05-05 03:30 | 23.34000 | -106.40405 | 35977 ft | 434 kts | 321° |
| 2026-05-05 03:31 | 23.38948 | -106.44090 | 35982 ft | 434 kts | 321° |
| 2026-05-05 03:31 | 23.43946 | -106.47807 | 35978 ft | 433 kts | 321° |
| 2026-05-05 03:32 | 23.48930 | -106.51513 | 35970 ft | 433 kts | 321° |
| 2026-05-05 03:32 | 23.53908 | -106.55212 | 35983 ft | 433 kts | 320° |
| 2026-05-05 03:33 | 23.58875 | -106.58917 | 35980 ft | 432 kts | 320° |
| 2026-05-05 03:33 | 23.63810 | -106.62611 | 35983 ft | 432 kts | 320° |
| 2026-05-05 03:34 | 23.68760 | -106.66327 | 35974 ft | 431 kts | 320° |
| 2026-05-05 03:34 | 23.73709 | -106.70036 | 35973 ft | 432 kts | 320° |
| 2026-05-05 03:35 | 23.78671 | -106.73742 | 35973 ft | 432 kts | 320° |
| 2026-05-05 03:35 | 23.83631 | -106.77456 | 35965 ft | 432 kts | 320° |
| 2026-05-05 03:36 | 23.88581 | -106.81176 | 35964 ft | 432 kts | 320° |
| 2026-05-05 03:36 | 23.93528 | -106.84900 | 35963 ft | 432 kts | 320° |
| 2026-05-05 03:37 | 23.98451 | -106.88603 | 35961 ft | 432 kts | 320° |
| 2026-05-05 03:37 | 24.03437 | -106.92351 | 35962 ft | 432 kts | 320° |
| 2026-05-05 03:38 | 24.08392 | -106.96080 | 35981 ft | 432 kts | 320° |
| 2026-05-05 03:38 | 24.13307 | -106.99779 | 35981 ft | 431 kts | 320° |
| 2026-05-05 03:39 | 24.18243 | -107.03507 | 35984 ft | 431 kts | 320° |
| 2026-05-05 03:39 | 24.23182 | -107.07240 | 35975 ft | 431 kts | 320° |
| 2026-05-05 03:40 | 24.28124 | -107.10977 | 35975 ft | 431 kts | 320° |
| 2026-05-05 03:40 | 24.33065 | -107.14725 | 35975 ft | 432 kts | 320° |
| 2026-05-05 03:41 | 24.38010 | -107.18466 | 35987 ft | 431 kts | 320° |
| 2026-05-05 03:41 | 24.42939 | -107.22200 | 35984 ft | 430 kts | 320° |
| 2026-05-05 03:42 | 24.47857 | -107.25933 | 35980 ft | 429 kts | 319° |
| 2026-05-05 03:42 | 24.52764 | -107.29664 | 35980 ft | 429 kts | 319° |
| 2026-05-05 03:43 | 24.57631 | -107.33373 | 35977 ft | 428 kts | 319° |
| 2026-05-05 03:43 | 24.62529 | -107.37102 | 35996 ft | 428 kts | 319° |
| 2026-05-05 03:44 | 24.67414 | -107.40831 | 35990 ft | 427 kts | 319° |
| 2026-05-05 03:44 | 24.72292 | -107.44561 | 35974 ft | 427 kts | 319° |
| 2026-05-05 03:45 | 24.77164 | -107.48304 | 35973 ft | 426 kts | 318° |
| 2026-05-05 03:45 | 24.81858 | -107.52263 | 35969 ft | 424 kts | 315° |
| 2026-05-05 03:46 | 24.86435 | -107.56370 | 35971 ft | 424 kts | 315° |
| 2026-05-05 03:46 | 24.91024 | -107.60467 | 35987 ft | 425 kts | 315° |
| 2026-05-05 03:47 | 24.95652 | -107.64525 | 35980 ft | 425 kts | 315° |
| 2026-05-05 03:47 | 25.00285 | -107.68563 | 35976 ft | 424 kts | 315° |
| 2026-05-05 03:48 | 25.04908 | -107.72608 | 35979 ft | 424 kts | 315° |
| 2026-05-05 03:48 | 25.09499 | -107.76638 | 35978 ft | 424 kts | 315° |
| 2026-05-05 03:49 | 25.14120 | -107.80691 | 35977 ft | 425 kts | 315° |
| 2026-05-05 03:49 | 25.18747 | -107.84752 | 35987 ft | 424 kts | 315° |
| 2026-05-05 03:50 | 25.23365 | -107.88810 | 35985 ft | 424 kts | 315° |
| 2026-05-05 03:50 | 25.27960 | -107.92854 | 35968 ft | 420 kts | 315° |
| 2026-05-05 03:51 | 25.32543 | -107.96884 | 35963 ft | 422 kts | 315° |
| 2026-05-05 03:51 | 25.37134 | -108.00929 | 35961 ft | 421 kts | 315° |
| 2026-05-05 03:52 | 25.41719 | -108.04977 | 35964 ft | 422 kts | 314° |
| 2026-05-05 03:52 | 25.46268 | -108.08999 | 35965 ft | 421 kts | 314° |
| 2026-05-05 03:53 | 25.50841 | -108.13044 | 35961 ft | 420 kts | 314° |
| 2026-05-05 03:53 | 25.55415 | -108.17092 | 35962 ft | 421 kts | 314° |
| 2026-05-05 03:54 | 25.59985 | -108.21144 | 35964 ft | 421 kts | 314° |
| 2026-05-05 03:54 | 25.64558 | -108.25198 | 35967 ft | 421 kts | 314° |
| 2026-05-05 03:55 | 25.69128 | -108.29257 | 35986 ft | 421 kts | 314° |
| 2026-05-05 03:55 | 25.73694 | -108.33326 | 35985 ft | 421 kts | 314° |
| 2026-05-05 03:56 | 25.78254 | -108.37385 | 35983 ft | 420 kts | 314° |
| 2026-05-05 03:56 | 25.82809 | -108.41451 | 35986 ft | 420 kts | 314° |
| 2026-05-05 03:57 | 25.87360 | -108.45513 | 35980 ft | 420 kts | 314° |
| 2026-05-05 03:57 | 25.91914 | -108.49581 | 35984 ft | 420 kts | 314° |
| 2026-05-05 03:58 | 25.96471 | -108.53658 | 36005 ft | 420 kts | 313° |
| 2026-05-05 03:58 | 26.00995 | -108.57704 | 35999 ft | 420 kts | 313° |
| 2026-05-05 03:59 | 26.05540 | -108.61766 | 35994 ft | 419 kts | 313° |
| 2026-05-05 03:59 | 26.10094 | -108.65842 | 35995 ft | 419 kts | 313° |
| 2026-05-05 04:00 | 26.14631 | -108.69920 | 35985 ft | 419 kts | 313° |
| 2026-05-05 04:00 | 26.19160 | -108.73994 | 35991 ft | 419 kts | 313° |
| 2026-05-05 04:01 | 26.23695 | -108.78072 | 36017 ft | 419 kts | 312° |
| 2026-05-05 04:01 | 26.28221 | -108.82152 | 35998 ft | 418 kts | 313° |
| 2026-05-05 04:02 | 26.32753 | -108.86239 | 35991 ft | 419 kts | 313° |
| 2026-05-05 04:02 | 26.36515 | -108.89632 | 35993 ft | 419 kts | 313° |
| 2026-05-05 04:03 | 26.41042 | -108.93722 | 35994 ft | 419 kts | 313° |
| 2026-05-05 04:03 | 26.46306 | -108.98479 | 35993 ft | 418 kts | 313° |
| 2026-05-05 04:04 | 26.50090 | -109.01906 | 35987 ft | 418 kts | 313° |
| 2026-05-05 04:04 | 26.54578 | -109.05975 | 35989 ft | 418 kts | 313° |
| 2026-05-05 04:05 | 26.59124 | -109.10093 | 35989 ft | 418 kts | 313° |
| 2026-05-05 04:05 | 26.63611 | -109.14166 | 35998 ft | 418 kts | 312° |
| 2026-05-05 04:06 | 26.68127 | -109.18273 | 35995 ft | 418 kts | 312° |
| 2026-05-05 04:06 | 26.72643 | -109.22379 | 36012 ft | 418 kts | 312° |
| 2026-05-05 04:07 | 26.77146 | -109.26483 | 36003 ft | 417 kts | 311° |
| 2026-05-05 04:07 | 26.81638 | -109.30588 | 35996 ft | 417 kts | 311° |
| 2026-05-05 04:08 | 26.86133 | -109.34694 | 35994 ft | 417 kts | 311° |
| 2026-05-05 04:08 | 26.90631 | -109.38799 | 35993 ft | 417 kts | 311° |
| 2026-05-05 04:09 | 26.95096 | -109.42870 | 35991 ft | 417 kts | 311° |
| 2026-05-05 04:09 | 26.99620 | -109.46942 | 36004 ft | 422 kts | 316° |
| 2026-05-05 04:10 | 27.02192 | -109.48613 | 35989 ft | 434 kts | 325° |
| 2026-05-05 04:10 | 27.05026 | -109.49864 | 35984 ft | 440 kts | 329° |
| 2026-05-05 04:10 | 27.10776 | -109.52236 | 35978 ft | 440 kts | 329° |
| 2026-05-05 04:11 | 27.16529 | -109.54616 | 35976 ft | 440 kts | 329° |
| 2026-05-05 04:11 | 27.22277 | -109.57004 | 35975 ft | 440 kts | 329° |
| 2026-05-05 04:12 | 27.28044 | -109.59399 | 35999 ft | 441 kts | 329° |
| 2026-05-05 04:12 | 27.33759 | -109.61784 | 35987 ft | 441 kts | 329° |
| 2026-05-05 04:13 | 27.39517 | -109.64187 | 35981 ft | 441 kts | 329° |
| 2026-05-05 04:13 | 27.45274 | -109.66591 | 35981 ft | 441 kts | 329° |
| 2026-05-05 04:14 | 27.51031 | -109.68995 | 35972 ft | 442 kts | 329° |
| 2026-05-05 04:14 | 27.56808 | -109.71411 | 35974 ft | 444 kts | 329° |
| 2026-05-05 04:15 | 27.59696 | -109.72619 | 35717 ft | 442 kts | 329° |
| 2026-05-05 04:15 | 27.62623 | -109.73852 | 34514 ft | 457 kts | 329° |
| 2026-05-05 04:15 | 27.65644 | -109.75136 | 33382 ft | 470 kts | 329° |
| 2026-05-05 04:15 | 27.68710 | -109.76429 | 32866 ft | 466 kts | 329° |
| 2026-05-05 04:16 | 27.71722 | -109.77677 | 32588 ft | 457 kts | 329° |
| 2026-05-05 04:16 | 27.74681 | -109.78895 | 31881 ft | 450 kts | 329° |
| 2026-05-05 04:16 | 27.77600 | -109.80101 | 31262 ft | 442 kts | 329° |
| 2026-05-05 04:16 | 27.80451 | -109.81281 | 30803 ft | 431 kts | 328° |
| 2026-05-05 04:17 | 27.83226 | -109.82437 | 30350 ft | 420 kts | 328° |
| 2026-05-05 04:17 | 27.85941 | -109.83576 | 29890 ft | 410 kts | 328° |
| 2026-05-05 04:17 | 27.88546 | -109.84676 | 29464 ft | 399 kts | 328° |
| 2026-05-05 04:17 | 27.91119 | -109.85764 | 29066 ft | 390 kts | 327° |
| 2026-05-05 04:18 | 27.93652 | -109.86842 | 28683 ft | 387 kts | 327° |
| 2026-05-05 04:18 | 27.96190 | -109.87934 | 28306 ft | 400 kts | 327° |
| 2026-05-05 04:18 | 27.98867 | -109.89111 | 27913 ft | 425 kts | 328° |
| 2026-05-05 04:18 | 28.01694 | -109.90344 | 27729 ft | 442 kts | 329° |
| 2026-05-05 04:19 | 28.04622 | -109.91598 | 27615 ft | 458 kts | 330° |
| 2026-05-05 04:19 | 28.07673 | -109.92887 | 27159 ft | 476 kts | 330° |
| 2026-05-05 04:19 | 28.10797 | -109.94194 | 26932 ft | 489 kts | 330° |
| 2026-05-05 04:19 | 28.13989 | -109.95555 | 26960 ft | 489 kts | 328° |
| 2026-05-05 04:20 | 28.16991 | -109.97264 | 26966 ft | 477 kts | 320° |
| 2026-05-05 04:20 | 28.19679 | -109.99386 | 26965 ft | 466 kts | 312° |
| 2026-05-05 04:20 | 28.22209 | -110.01684 | 26964 ft | 466 kts | 312° |
| 2026-05-05 04:20 | 28.24739 | -110.03979 | 26964 ft | 465 kts | 312° |
| 2026-05-05 04:21 | 28.27267 | -110.06270 | 26963 ft | 465 kts | 312° |
| 2026-05-05 04:21 | 28.29801 | -110.08565 | 26961 ft | 466 kts | 312° |
| 2026-05-05 04:21 | 28.32332 | -110.10853 | 26962 ft | 465 kts | 312° |
| 2026-05-05 04:21 | 28.34861 | -110.13140 | 26962 ft | 464 kts | 312° |
| 2026-05-05 04:22 | 28.37384 | -110.15422 | 26970 ft | 464 kts | 311° |
| 2026-05-05 04:22 | 28.39914 | -110.17713 | 26955 ft | 465 kts | 311° |
| 2026-05-05 04:22 | 28.42444 | -110.20006 | 26955 ft | 465 kts | 311° |
| 2026-05-05 04:22 | 28.44978 | -110.22302 | 26947 ft | 466 kts | 311° |
| 2026-05-05 04:23 | 28.47512 | -110.24599 | 26939 ft | 466 kts | 311° |
| 2026-05-05 04:23 | 28.50045 | -110.26901 | 26937 ft | 467 kts | 311° |
| 2026-05-05 04:23 | 28.52587 | -110.29213 | 26936 ft | 467 kts | 311° |
| 2026-05-05 04:23 | 28.55129 | -110.31526 | 26963 ft | 467 kts | 311° |
| 2026-05-05 04:24 | 28.57653 | -110.33815 | 26684 ft | 460 kts | 311° |
| 2026-05-05 04:24 | 28.60135 | -110.36056 | 25243 ft | 454 kts | 311° |
| 2026-05-05 04:24 | 28.62586 | -110.38289 | 23471 ft | 460 kts | 312° |
| 2026-05-05 04:25 | 28.67507 | -110.42776 | 20475 ft | 446 kts | 313° |
| 2026-05-05 04:25 | 28.69908 | -110.44960 | 19116 ft | 438 kts | 314° |
| 2026-05-05 04:25 | 28.72278 | -110.47120 | 17720 ft | 432 kts | 315° |
| 2026-05-05 04:25 | 28.74605 | -110.49246 | 16291 ft | 425 kts | 315° |
| 2026-05-05 04:26 | 28.76884 | -110.51328 | 15364 ft | 410 kts | 315° |
| 2026-05-05 04:26 | 28.79033 | -110.53282 | 14928 ft | 384 kts | 315° |
| 2026-05-05 04:26 | 28.81120 | -110.55191 | 13683 ft | 385 kts | 316° |
| 2026-05-05 04:26 | 28.83200 | -110.57107 | 12334 ft | 384 kts | 317° |
| 2026-05-05 04:27 | 28.85291 | -110.59038 | 11092 ft | 387 kts | 318° |
| 2026-05-05 04:27 | 28.87381 | -110.60967 | 10329 ft | 387 kts | 319° |
| 2026-05-05 04:27 | 28.89479 | -110.62898 | 10042 ft | 388 kts | 319° |
| 2026-05-05 04:27 | 28.91513 | -110.64759 | 9927 ft | 357 kts | 319° |
| 2026-05-05 04:28 | 28.93363 | -110.66444 | 9939 ft | 325 kts | 319° |
| 2026-05-05 04:28 | 28.95039 | -110.67972 | 9943 ft | 302 kts | 319° |
| 2026-05-05 04:28 | 28.96661 | -110.69459 | 9890 ft | 296 kts | 318° |
| 2026-05-05 04:28 | 28.98255 | -110.70928 | 9328 ft | 293 kts | 318° |
| 2026-05-05 04:29 | 28.99838 | -110.72390 | 8730 ft | 292 kts | 319° |
| 2026-05-05 04:29 | 29.01417 | -110.73850 | 8148 ft | 291 kts | 319° |
| 2026-05-05 04:29 | 29.02994 | -110.75305 | 7572 ft | 290 kts | 319° |
| 2026-05-05 04:29 | 29.04568 | -110.76754 | 7025 ft | 289 kts | 319° |
| 2026-05-05 04:30 | 29.06133 | -110.78197 | 6474 ft | 289 kts | 319° |
| 2026-05-05 04:30 | 29.07672 | -110.79619 | 5921 ft | 287 kts | 319° |
| 2026-05-05 04:30 | 29.09239 | -110.81065 | 5394 ft | 284 kts | 319° |
| 2026-05-05 04:30 | 29.10769 | -110.82479 | 4884 ft | 281 kts | 319° |
| 2026-05-05 04:31 | 29.12354 | -110.83709 | 4358 ft | 278 kts | 328° |
| 2026-05-05 04:31 | 29.14001 | -110.84827 | 4032 ft | 268 kts | 328° |
| 2026-05-05 04:31 | 29.15541 | -110.85882 | 3975 ft | 247 kts | 327° |
| 2026-05-05 04:31 | 29.16826 | -110.87018 | 3976 ft | 222 kts | 305° |
| 2026-05-05 04:32 | 29.17433 | -110.88581 | 3985 ft | 214 kts | 276° |
| 2026-05-05 04:32 | 29.17310 | -110.90234 | 3545 ft | 210 kts | 247° |
| 2026-05-05 04:32 | 29.16572 | -110.91726 | 2673 ft | 221 kts | 238° |
| 2026-05-05 04:32 | 29.15753 | -110.93230 | 2484 ft | 224 kts | 239° |
| 2026-05-05 04:33 | 29.14938 | -110.94736 | 2487 ft | 212 kts | 240° |
| 2026-05-05 04:33 | 29.14195 | -110.96112 | 2430 ft | 192 kts | 240° |
| 2026-05-05 04:33 | 29.13515 | -110.97382 | 2107 ft | 181 kts | 240° |
| 2026-05-05 04:33 | 29.12889 | -110.98558 | 1867 ft | 164 kts | 239° |
| 2026-05-05 04:34 | 29.12325 | -110.99618 | 1647 ft | 147 kts | 240° |
| 2026-05-05 04:34 | 29.11811 | -111.00584 | 1424 ft | 138 kts | 240° |
| 2026-05-05 04:34 | 29.11316 | -111.01515 | 1229 ft | 135 kts | 239° |
| 2026-05-05 04:34 | 29.10830 | -111.02429 | 1041 ft | 134 kts | 239° |
| 2026-05-05 04:35 | 29.10347 | -111.03347 | 846 ft | 135 kts | 239° |
| 2026-05-05 04:35 | 29.09861 | -111.04258 | 671 ft | 133 kts | 240° |
| 2026-05-05 04:35 | 29.09437 | -111.05057 | 639 ft | 93 kts | 238° |
| 2026-05-05 04:35 | 29.09169 | -111.05563 | 634 ft | 57 kts | 239° |
| 2026-05-05 04:36 | 29.08970 | -111.05940 | 636 ft | 56 kts | 238° |
| 2026-05-05 04:36 | 29.08829 | -111.06202 | 625 ft | 17 kts | 238° |
| 2026-05-05 04:36 | 29.08770 | -111.06228 | 621 ft | 8 kts | 142° |
| 2026-05-05 04:36 | 29.08728 | -111.06188 | 625 ft | 7 kts | 119° |
| 2026-05-05 04:37 | 29.08725 | -111.06133 | 621 ft | 7 kts | 89° |
| 2026-05-05 04:37 | 29.08731 | -111.06025 | 631 ft | 16 kts | 73° |
| 2026-05-05 04:37 | 29.08786 | -111.05911 | 629 ft | 16 kts | 59° |
| 2026-05-05 04:37 | 29.08844 | -111.05801 | 632 ft | 16 kts | 58° |
| 2026-05-05 04:38 | 29.08903 | -111.05691 | 636 ft | 16 kts | 58° |
| 2026-05-05 04:38 | 29.08964 | -111.05579 | 640 ft | 17 kts | 59° |
| 2026-05-05 04:38 | 29.09027 | -111.05456 | 640 ft | 19 kts | 59° |
| 2026-05-05 04:38 | 29.09097 | -111.05325 | 642 ft | 17 kts | 58° |
| 2026-05-05 04:39 | 29.09087 | -111.05244 | 643 ft | 11 kts | 146° |
| 2026-05-05 04:39 | 29.09064 | -111.05228 | 643 ft | 0 kts | 148° |